createdAt,value
2018-03-22T00:01:44.168Z,7.35
2018-03-22T00:04:12.080Z,7.68
2018-03-22T00:06:40.001Z,6.82
2018-03-22T00:09:08.283Z,6.93
2018-03-22T00:11:36.204Z,6.90
2018-03-22T00:14:04.116Z,6.65
2018-03-22T00:16:32.060Z,6.43
2018-03-22T00:18:59.980Z,6.62
2018-03-22T00:21:27.892Z,6.87
2018-03-22T00:23:55.816Z,6.65
2018-03-22T00:26:23.736Z,6.87
2018-03-22T00:28:52.032Z,6.70
2018-03-22T00:31:20.092Z,6.80
2018-03-22T00:33:48.030Z,6.25
2018-03-22T00:36:15.944Z,6.93
2018-03-22T00:38:43.863Z,6.15
2018-03-22T00:41:11.775Z,6.43
2018-03-22T00:43:39.708Z,6.85
2018-03-22T00:46:07.607Z,6.70
2018-03-22T00:48:35.517Z,5.90
2018-03-22T00:51:03.479Z,6.25
2018-03-22T00:53:31.376Z,7.28
2018-03-22T00:55:59.283Z,6.65
2018-03-22T00:58:27.206Z,6.07
2018-03-22T01:00:55.407Z,6.97
2018-03-22T01:03:23.360Z,6.60
2018-03-22T01:05:51.535Z,5.97
2018-03-22T01:08:19.448Z,6.97
2018-03-22T01:10:47.704Z,6.78
2018-03-22T01:13:15.651Z,6.95
2018-03-22T01:15:43.552Z,6.85
2018-03-22T01:18:11.457Z,7.20
2018-03-22T01:20:39.688Z,6.17
2018-03-22T01:23:07.596Z,7.75
2018-03-22T01:25:35.495Z,8.60
2018-03-22T01:28:03.441Z,7.55
2018-03-22T01:33:26.072Z,7.90
2018-03-22T01:35:54.252Z,9.48
2018-03-22T01:38:22.144Z,9.20
2018-03-22T01:40:50.040Z,8.95
2018-03-22T01:43:17.949Z,10.15
2018-03-22T01:45:45.892Z,10.60
2018-03-22T01:48:13.814Z,12.15
2018-03-22T01:50:41.815Z,11.75
2018-03-22T01:53:12.575Z,12.25
2018-03-22T01:55:40.484Z,12.32
2018-03-22T01:58:08.396Z,12.18
2018-03-22T02:00:36.315Z,13.82
2018-03-22T02:03:04.251Z,13.57
2018-03-22T02:05:32.199Z,14.65
2018-03-22T02:08:00.113Z,12.90
2018-03-22T02:10:28.042Z,14.35
2018-03-22T02:12:56.375Z,16.10
2018-03-22T02:15:24.247Z,15.85
2018-03-22T02:17:52.182Z,15.43
2018-03-22T02:20:20.093Z,18.80
2018-03-22T02:22:47.998Z,16.73
2018-03-22T02:25:15.913Z,17.90
2018-03-22T02:27:43.830Z,17.85
2018-03-22T02:30:11.768Z,18.15
2018-03-22T02:32:39.665Z,19.10
2018-03-22T02:35:07.574Z,20.73
2018-03-22T02:37:35.480Z,21.65
2018-03-22T02:40:03.406Z,24.60
2018-03-22T02:42:31.332Z,23.70
2018-03-22T02:44:59.266Z,24.27
2018-03-22T02:47:27.240Z,26.92
2018-03-22T02:49:55.151Z,26.85
2018-03-22T02:52:23.060Z,31.58
2018-03-22T02:54:50.971Z,30.83
2018-03-22T02:57:18.896Z,29.90
2018-03-22T02:59:46.872Z,31.90
2018-03-22T03:02:14.801Z,34.55
2018-03-22T03:04:42.751Z,30.88
2018-03-22T03:07:10.652Z,34.13
2018-03-22T03:09:38.597Z,33.92
2018-03-22T03:12:06.632Z,36.38
2018-03-22T03:14:34.599Z,38.00
2018-03-22T03:17:02.512Z,37.78
2018-03-22T03:19:30.432Z,38.42
2018-03-22T03:21:58.351Z,37.80
2018-03-22T03:24:26.331Z,36.72
2018-03-22T03:26:54.308Z,34.90
2018-03-22T03:29:22.215Z,34.13
2018-03-22T03:31:50.112Z,35.53
2018-03-22T03:34:18.053Z,33.30
2018-03-22T03:36:45.969Z,35.53
2018-03-22T03:39:13.905Z,33.75
2018-03-22T03:44:21.959Z,35.67
2018-03-22T03:46:49.859Z,35.05
2018-03-22T03:49:17.776Z,35.28
2018-03-22T03:51:45.675Z,36.05
2018-03-22T03:54:13.584Z,38.33
2018-03-22T03:56:41.516Z,36.47
2018-03-22T03:59:09.439Z,38.38
2018-03-22T04:01:37.609Z,39.45
2018-03-22T04:04:05.529Z,38.63
2018-03-22T04:06:33.440Z,45.10
2018-03-22T04:09:01.379Z,41.60
2018-03-22T04:11:29.292Z,41.85
2018-03-22T04:13:57.244Z,41.88
2018-03-22T04:16:25.418Z,46.10
2018-03-22T04:18:53.323Z,45.67
2018-03-22T04:21:21.267Z,46.05
2018-03-22T04:23:49.184Z,45.30
2018-03-22T04:26:17.100Z,46.28
2018-03-22T04:28:45.013Z,42.55
2018-03-22T04:31:12.922Z,44.15
2018-03-22T04:33:40.831Z,45.95
2018-03-22T04:36:09.055Z,45.30
2018-03-22T04:38:37.019Z,45.20
2018-03-22T04:41:04.959Z,46.13
2018-03-22T04:43:32.894Z,48.70
2018-03-22T04:46:00.802Z,45.90
2018-03-22T04:48:28.712Z,48.13
2018-03-22T04:50:56.687Z,47.35
2018-03-22T04:53:24.660Z,49.47
2018-03-22T04:55:52.574Z,47.33
2018-03-22T04:58:20.522Z,47.13
2018-03-22T05:00:48.436Z,50.12
2018-03-22T05:03:16.385Z,47.00
2018-03-22T05:05:44.288Z,50.15
2018-03-22T05:08:12.202Z,51.40
2018-03-22T05:10:40.484Z,50.42
2018-03-22T05:13:08.404Z,50.22
2018-03-22T05:15:36.320Z,51.25
2018-03-22T05:18:04.468Z,49.72
2018-03-22T05:20:32.371Z,53.60
2018-03-22T05:23:00.280Z,51.60
2018-03-22T05:25:28.223Z,52.92
2018-03-22T05:27:56.122Z,50.85
2018-03-22T05:30:24.049Z,50.35
2018-03-22T05:32:52.351Z,50.95
2018-03-22T05:35:20.307Z,49.78
2018-03-22T05:37:48.300Z,49.85
2018-03-22T05:40:16.384Z,52.65
2018-03-22T05:42:44.585Z,53.53
2018-03-22T05:45:12.516Z,53.25
2018-03-22T05:47:40.474Z,50.38
2018-03-22T05:50:08.395Z,50.97
2018-03-22T05:52:36.319Z,52.42
2018-03-22T05:55:04.341Z,50.97
2018-03-22T05:57:32.259Z,52.03
2018-03-22T06:00:00.182Z,50.90
2018-03-22T06:02:28.442Z,51.22
2018-03-22T06:04:56.359Z,50.53
2018-03-22T06:07:24.271Z,50.15
2018-03-22T06:09:52.184Z,47.90
2018-03-22T06:12:20.139Z,47.00
2018-03-22T06:14:48.031Z,45.80
2018-03-22T06:17:15.956Z,46.97
2018-03-22T06:19:44.215Z,42.00
2018-03-22T06:22:12.121Z,46.45
2018-03-22T06:24:40.080Z,45.90
2018-03-22T06:27:09.181Z,43.80
2018-03-22T06:29:37.104Z,42.38
2018-03-22T06:32:05.053Z,43.67
2018-03-22T06:34:33.255Z,42.55
2018-03-22T06:37:01.339Z,43.20
2018-03-22T06:39:29.252Z,40.58
2018-03-22T06:41:57.191Z,41.10
2018-03-22T06:44:25.113Z,40.42
2018-03-22T06:46:53.231Z,39.90
2018-03-22T06:49:21.193Z,40.78
2018-03-22T06:51:49.132Z,38.72
2018-03-22T06:54:17.114Z,38.03
2018-03-22T06:56:45.091Z,37.72
2018-03-22T06:59:13.083Z,37.00
2018-03-22T07:01:41.058Z,36.67
2018-03-22T07:04:08.992Z,37.80
2018-03-22T07:06:36.914Z,37.15
2018-03-22T07:09:04.812Z,36.17
2018-03-22T07:11:33.310Z,36.55
2018-03-22T07:14:01.249Z,35.42
2018-03-22T07:16:29.145Z,35.38
2018-03-22T07:18:57.078Z,35.35
2018-03-22T07:21:25.083Z,32.40
2018-03-22T07:23:53.021Z,35.15
2018-03-22T07:26:20.951Z,30.85
2018-03-22T07:28:48.895Z,29.50
2018-03-22T07:31:16.799Z,32.35
2018-03-22T07:33:44.760Z,32.30
2018-03-22T07:36:12.727Z,32.35
2018-03-22T07:38:40.678Z,31.95
2018-03-22T07:41:08.596Z,29.83
2018-03-22T07:43:41.428Z,31.80
2018-03-22T07:46:09.716Z,31.62
2018-03-22T07:48:37.640Z,32.35
2018-03-22T07:51:05.863Z,33.63
2018-03-22T07:53:33.775Z,33.50
2018-03-22T07:56:01.723Z,29.00
2018-03-22T07:58:29.633Z,30.20
2018-03-22T08:00:58.482Z,31.55
2018-03-22T08:03:26.437Z,31.00
2018-03-22T08:05:54.387Z,31.73
2018-03-22T08:08:22.291Z,31.00
2018-03-22T08:10:50.233Z,30.67
2018-03-22T08:13:18.160Z,30.17
2018-03-22T08:15:46.131Z,29.52
2018-03-22T08:18:14.023Z,29.63
2018-03-22T08:20:41.973Z,28.93
2018-03-22T08:23:10.186Z,29.37
2018-03-22T08:25:38.092Z,28.02
2018-03-22T08:28:06.175Z,27.05
2018-03-22T08:30:34.079Z,28.85
2018-03-22T08:33:02.148Z,27.67
2018-03-22T08:35:30.095Z,27.33
2018-03-22T08:37:58.007Z,28.52
2018-03-22T08:40:26.296Z,27.10
2018-03-22T08:42:54.196Z,28.20
2018-03-22T08:45:22.093Z,26.10
2018-03-22T08:47:50.018Z,26.80
2018-03-22T08:50:17.918Z,26.05
2018-03-22T08:52:45.891Z,25.00
2018-03-22T08:55:13.847Z,25.37
2018-03-22T08:57:41.755Z,25.85
2018-03-22T09:00:09.717Z,23.17
2018-03-22T09:02:37.655Z,23.62
2018-03-22T09:05:05.609Z,22.40
2018-03-22T09:07:33.555Z,22.90
2018-03-22T09:10:01.449Z,21.40
2018-03-22T09:12:29.387Z,19.12
2018-03-22T09:14:57.321Z,17.70
2018-03-22T09:17:25.222Z,16.10
2018-03-22T09:19:53.204Z,16.58
2018-03-22T09:22:21.125Z,15.33
2018-03-22T09:24:49.691Z,15.07
2018-03-22T09:27:17.780Z,13.33
2018-03-22T09:29:45.704Z,13.13
2018-03-22T09:32:13.627Z,11.18
2018-03-22T09:34:41.538Z,11.47
2018-03-22T09:37:09.498Z,11.13
2018-03-22T09:39:37.404Z,12.13
2018-03-22T09:42:05.339Z,10.00
2018-03-22T09:44:33.243Z,10.13
2018-03-22T09:47:01.146Z,8.70
2018-03-22T09:49:29.055Z,9.13
2018-03-22T09:51:56.957Z,9.13
2018-03-22T09:54:24.878Z,8.63
2018-03-22T09:56:52.824Z,8.57
2018-03-22T09:59:20.751Z,8.90
2018-03-22T10:01:48.670Z,8.10
2018-03-22T10:04:16.594Z,7.90
2018-03-22T10:06:44.495Z,7.23
2018-03-22T10:09:12.444Z,7.67
2018-03-22T10:11:40.346Z,8.37
2018-03-22T10:14:08.260Z,8.17
2018-03-22T10:16:36.216Z,8.77
2018-03-22T10:19:04.111Z,7.20
2018-03-22T10:21:32.016Z,7.40
2018-03-22T10:23:59.951Z,7.97
2018-03-22T10:26:28.051Z,7.60
2018-03-22T10:28:56.019Z,6.30
2018-03-22T10:31:23.933Z,6.83
2018-03-22T10:33:51.841Z,6.93
2018-03-22T10:36:19.759Z,6.53
2018-03-22T10:38:47.681Z,8.17
2018-03-22T10:41:15.609Z,7.47
2018-03-22T10:43:43.860Z,7.10
2018-03-22T10:46:11.784Z,7.07
2018-03-22T10:48:39.683Z,7.20
2018-03-22T10:51:07.783Z,6.20
2018-03-22T10:53:35.743Z,6.33
2018-03-22T10:56:03.668Z,5.60
2018-03-22T10:58:31.651Z,5.70
2018-03-22T11:01:05.587Z,6.57
2018-03-22T11:03:39.601Z,5.10
2018-03-22T11:06:07.528Z,5.70
2018-03-22T11:08:35.779Z,5.00
2018-03-22T11:11:03.679Z,5.80
2018-03-22T11:13:31.587Z,4.70
2018-03-22T11:16:00.200Z,5.43
2018-03-22T11:18:28.172Z,5.10
2018-03-22T11:20:56.073Z,5.80
2018-03-22T11:23:23.971Z,6.13
2018-03-22T11:25:51.920Z,5.40
2018-03-22T11:28:20.256Z,5.20
2018-03-22T11:30:48.163Z,5.10
2018-03-22T11:33:16.084Z,5.23
2018-03-22T11:35:43.987Z,5.40
2018-03-22T11:38:11.883Z,5.40
2018-03-22T11:40:39.779Z,6.13
2018-03-22T11:43:07.684Z,5.40
2018-03-22T11:45:35.583Z,5.93
2018-03-22T11:48:03.669Z,5.33
2018-03-22T11:50:31.576Z,5.20
2018-03-22T11:52:59.475Z,5.53
2018-03-22T11:55:27.433Z,6.40
2018-03-22T11:57:55.333Z,5.83
2018-03-22T12:00:23.259Z,5.57
2018-03-22T12:02:51.249Z,5.20
2018-03-22T12:05:19.175Z,4.70
2018-03-22T12:07:47.094Z,4.17
2018-03-22T12:10:15.052Z,4.03
2018-03-22T12:12:42.987Z,3.10
2018-03-22T12:15:10.890Z,3.87
2018-03-22T12:17:40.147Z,3.73
2018-03-22T12:20:08.121Z,3.57
2018-03-22T12:22:36.055Z,3.87
2018-03-22T12:25:03.968Z,3.60
2018-03-22T12:27:31.889Z,2.40
2018-03-22T12:30:00.123Z,2.30
2018-03-22T12:32:28.092Z,2.50
2018-03-22T12:34:56.004Z,2.87
2018-03-22T12:37:23.972Z,2.70
2018-03-22T12:39:51.908Z,2.50
2018-03-22T12:42:19.845Z,2.60
2018-03-22T12:44:47.810Z,2.87
2018-03-22T12:47:15.687Z,3.37
2018-03-22T12:49:43.615Z,2.77
2018-03-22T12:52:11.538Z,2.97
2018-03-22T12:54:39.436Z,3.53
2018-03-22T12:57:07.339Z,4.30
2018-03-22T12:59:35.265Z,5.50
2018-03-22T13:02:03.171Z,7.97
2018-03-22T13:04:31.076Z,7.93
2018-03-22T13:06:59.254Z,11.30
2018-03-22T13:09:27.171Z,10.07
2018-03-22T13:11:55.187Z,9.37
2018-03-22T13:14:23.118Z,9.57
2018-03-22T13:16:51.052Z,9.43
2018-03-22T13:19:19.000Z,9.30
2018-03-22T13:21:47.307Z,8.97
2018-03-22T13:24:15.221Z,11.00
2018-03-22T13:26:43.157Z,11.03
2018-03-22T13:29:11.118Z,11.57
2018-03-22T13:31:39.242Z,11.50
2018-03-22T13:34:07.147Z,9.53
2018-03-22T13:36:35.251Z,8.90
2018-03-22T13:39:03.177Z,7.77
2018-03-22T13:41:31.075Z,9.03
2018-03-22T13:43:59.038Z,9.10
2018-03-22T13:46:26.947Z,9.63
2018-03-22T13:48:54.839Z,8.70
2018-03-22T13:51:22.739Z,10.30
2018-03-22T13:53:50.686Z,10.03
2018-03-22T13:56:18.673Z,10.87
2018-03-22T13:58:46.624Z,10.07
2018-03-22T14:01:14.520Z,10.77
2018-03-22T14:03:42.427Z,9.87
2018-03-22T14:06:10.375Z,11.03
2018-03-22T14:08:38.283Z,11.10
2018-03-22T14:11:06.287Z,10.30
2018-03-22T14:13:34.233Z,12.27
2018-03-22T14:16:02.168Z,11.50
2018-03-22T14:18:30.077Z,9.67
2018-03-22T14:20:58.028Z,10.50
2018-03-22T14:23:25.954Z,9.67
2018-03-22T14:25:53.856Z,9.37
2018-03-22T14:28:21.806Z,10.00
2018-03-22T14:30:49.744Z,9.30
2018-03-22T14:33:17.987Z,10.67
2018-03-22T14:35:45.911Z,9.87
2018-03-22T14:38:13.843Z,9.10
2018-03-22T14:40:41.780Z,9.40
2018-03-22T14:43:10.047Z,8.73
2018-03-22T14:45:37.996Z,9.27
2018-03-22T14:48:05.940Z,10.70
2018-03-22T14:50:33.863Z,6.73
2018-03-22T14:53:01.788Z,7.53
2018-03-22T14:55:29.708Z,6.30
2018-03-22T14:57:57.708Z,5.20
2018-03-22T15:00:25.632Z,5.57
2018-03-22T15:02:53.546Z,3.70
2018-03-22T15:05:21.476Z,4.77
2018-03-22T15:07:49.395Z,4.60
2018-03-22T15:10:17.296Z,4.73
2018-03-22T15:12:52.238Z,5.03
2018-03-22T15:15:20.157Z,5.73
2018-03-22T15:17:48.103Z,6.07
2018-03-22T15:20:16.217Z,4.77
2018-03-22T15:22:44.200Z,5.50
2018-03-22T15:25:12.112Z,4.10
2018-03-22T15:27:40.046Z,4.20
2018-03-22T15:30:07.954Z,4.20
2018-03-22T15:32:35.848Z,4.67
2018-03-22T15:35:03.962Z,5.50
2018-03-22T15:37:31.864Z,5.03
2018-03-22T15:39:59.825Z,5.23
2018-03-22T15:42:27.815Z,4.47
2018-03-22T15:44:55.720Z,5.30
2018-03-22T15:47:23.643Z,5.40
2018-03-22T15:49:51.644Z,5.13
2018-03-22T15:52:19.712Z,5.10
2018-03-22T15:54:47.618Z,5.40
2018-03-22T15:57:15.560Z,5.30
2018-03-22T15:59:43.500Z,6.30
2018-03-22T16:02:11.386Z,6.00
2018-03-22T16:04:39.329Z,5.77
2018-03-22T16:07:07.222Z,6.17
2018-03-22T16:09:35.135Z,6.17
2018-03-22T16:12:03.061Z,5.87
2018-03-22T16:14:30.987Z,6.53
2018-03-22T16:16:58.895Z,6.60
2018-03-22T16:19:27.016Z,5.53
2018-03-22T16:21:54.891Z,5.73
2018-03-22T16:24:22.792Z,5.30
2018-03-22T16:26:50.747Z,6.83
2018-03-22T16:29:18.670Z,5.90
2018-03-22T16:31:46.571Z,6.90
2018-03-22T16:34:14.476Z,6.40
2018-03-22T16:36:42.514Z,5.83
2018-03-22T16:39:10.378Z,6.90
2018-03-22T16:41:38.293Z,6.67
2018-03-22T16:44:06.212Z,6.70
2018-03-22T16:46:34.279Z,6.10
2018-03-22T16:49:02.259Z,6.33
2018-03-22T16:51:30.295Z,6.20
2018-03-22T16:53:58.559Z,6.03
2018-03-22T16:56:26.510Z,6.30
2018-03-22T16:58:54.437Z,6.23
2018-03-22T17:01:22.380Z,6.50
2018-03-22T17:03:50.288Z,6.87
2018-03-22T17:06:18.196Z,6.97
2018-03-22T17:08:46.254Z,6.17
2018-03-22T17:11:14.167Z,7.27
2018-03-22T17:13:42.108Z,7.77
2018-03-22T17:16:10.044Z,8.20
2018-03-22T17:18:37.967Z,7.63
2018-03-22T17:21:05.883Z,6.50
2018-03-22T17:23:33.810Z,8.27
2018-03-22T17:26:01.719Z,8.20
2018-03-22T17:28:29.659Z,7.67
2018-03-22T17:30:57.620Z,7.90
2018-03-22T17:33:25.556Z,7.60
2018-03-22T17:35:53.471Z,7.20
2018-03-22T17:38:21.472Z,7.70
2018-03-22T17:40:49.417Z,8.60
2018-03-22T17:43:17.368Z,8.90
2018-03-22T17:45:45.294Z,8.60
2018-03-22T17:48:13.256Z,8.40
2018-03-22T17:50:41.199Z,8.93
2018-03-22T17:53:09.114Z,11.40
2018-03-22T17:55:37.024Z,10.13
2018-03-22T17:58:04.931Z,10.53
2018-03-22T18:00:32.858Z,11.87
2018-03-22T18:03:00.784Z,11.50
2018-03-22T18:05:28.703Z,12.87
2018-03-22T18:07:56.607Z,12.90
2018-03-22T18:10:24.508Z,12.40
2018-03-22T18:12:52.427Z,12.30
2018-03-22T18:15:20.355Z,11.57
2018-03-22T18:17:48.300Z,13.53
2018-03-22T18:20:16.211Z,12.87
2018-03-22T18:22:44.164Z,12.10
2018-03-22T18:25:12.071Z,12.90
2018-03-22T18:27:40.015Z,12.27
2018-03-22T18:30:07.956Z,14.23
2018-03-22T18:32:35.883Z,14.00
2018-03-22T18:35:03.807Z,13.80
2018-03-22T18:37:31.895Z,14.60
2018-03-22T18:40:00.015Z,15.67
2018-03-22T18:42:27.953Z,14.23
2018-03-22T18:44:55.892Z,12.77
2018-03-22T18:47:23.836Z,14.70
2018-03-22T18:49:51.739Z,14.33
2018-03-22T18:52:19.667Z,15.27
2018-03-22T18:57:27.667Z,14.30
2018-03-22T18:59:55.752Z,13.73
2018-03-22T19:02:23.703Z,14.60
2018-03-22T19:04:51.624Z,13.87
2018-03-22T19:07:19.558Z,14.43
2018-03-22T19:09:47.423Z,15.47
2018-03-22T19:12:15.341Z,15.13
2018-03-22T19:14:43.542Z,14.77
2018-03-22T19:17:11.460Z,15.40
2018-03-22T19:19:39.368Z,14.00
2018-03-22T19:22:07.611Z,13.75
2018-03-22T19:24:35.507Z,12.97
2018-03-22T19:27:03.440Z,12.80
2018-03-22T19:29:31.365Z,13.23
2018-03-22T19:31:59.267Z,12.63
2018-03-22T19:34:27.198Z,12.52
2018-03-22T19:36:55.118Z,14.30
2018-03-22T19:39:23.032Z,12.73
2018-03-22T19:41:51.232Z,12.23
2018-03-22T19:44:19.213Z,12.85
2018-03-22T19:46:47.103Z,12.50
2018-03-22T19:49:15.035Z,14.43
2018-03-22T19:51:43.209Z,13.43
2018-03-22T19:54:11.129Z,12.85
2018-03-22T19:56:39.028Z,13.73
2018-03-22T19:59:06.939Z,13.45
2018-03-22T20:01:34.879Z,14.13
2018-03-22T20:04:02.978Z,13.73
2018-03-22T20:06:30.948Z,15.00
2018-03-22T20:08:58.846Z,14.30
2018-03-22T20:11:26.763Z,13.20
2018-03-22T20:13:54.723Z,13.32
2018-03-22T20:16:22.635Z,13.80
2018-03-22T20:18:50.844Z,13.10
2018-03-22T20:21:18.797Z,14.60
2018-03-22T20:23:46.731Z,15.50
2018-03-22T20:26:14.914Z,15.20
2018-03-22T20:28:42.788Z,14.47
2018-03-22T20:31:10.707Z,13.90
2018-03-22T20:33:38.646Z,13.27
2018-03-22T20:36:06.549Z,12.83
2018-03-22T20:38:34.775Z,12.60
2018-03-22T20:41:02.717Z,12.20
2018-03-22T20:43:30.916Z,11.50
2018-03-22T20:45:58.919Z,12.37
2018-03-22T20:48:26.771Z,12.10
2018-03-22T20:50:54.731Z,10.27
2018-03-22T20:53:22.630Z,12.00
2018-03-22T20:55:50.523Z,11.73
2018-03-22T20:58:18.554Z,10.63
2018-03-22T21:00:46.423Z,9.40
2018-03-22T21:03:14.336Z,10.00
2018-03-22T21:05:42.267Z,9.25
2018-03-22T21:08:10.205Z,8.60
2018-03-22T21:10:38.104Z,8.37
2018-03-22T21:13:06.359Z,8.32
2018-03-22T21:15:34.295Z,7.93
2018-03-22T21:18:02.211Z,8.43
2018-03-22T21:20:30.129Z,7.97
2018-03-22T21:22:58.031Z,8.07
2018-03-22T21:25:25.962Z,7.62
2018-03-22T21:27:53.864Z,8.15
2018-03-22T21:30:21.787Z,7.33
2018-03-22T21:32:49.939Z,8.80
2018-03-22T21:35:17.851Z,7.97
2018-03-22T21:37:45.799Z,7.63
2018-03-22T21:40:13.748Z,7.93
2018-03-22T21:42:41.680Z,8.00
2018-03-22T21:45:09.847Z,8.07
2018-03-22T21:47:38.089Z,8.53
2018-03-22T21:50:06.012Z,8.70
2018-03-22T21:52:39.955Z,8.57
2018-03-22T21:55:07.868Z,8.40
2018-03-22T21:57:35.800Z,8.73
2018-03-22T22:00:03.719Z,8.32
2018-03-22T22:02:31.676Z,8.80
2018-03-22T22:04:59.635Z,8.57
2018-03-22T22:07:27.527Z,7.75
2018-03-22T22:09:55.500Z,8.47
2018-03-22T22:12:23.452Z,8.85
2018-03-22T22:14:51.359Z,8.40
2018-03-22T22:17:19.291Z,6.47
2018-03-22T22:19:47.216Z,6.93
2018-03-22T22:22:15.389Z,8.48
2018-03-22T22:24:43.330Z,6.97
2018-03-22T22:27:11.267Z,6.77
2018-03-22T22:29:39.971Z,6.20
2018-03-22T22:32:07.884Z,8.18
2018-03-22T22:34:35.788Z,7.07
2018-03-22T22:37:03.715Z,6.60
2018-03-22T22:39:31.636Z,6.70
2018-03-22T22:41:59.556Z,5.85
2018-03-22T22:44:27.477Z,5.95
2018-03-22T22:46:55.750Z,6.18
2018-03-22T22:49:23.703Z,7.03
2018-03-22T22:51:51.618Z,6.78
2018-03-22T22:54:19.527Z,6.60
2018-03-22T22:56:47.471Z,7.28
2018-03-22T22:59:15.355Z,6.50
2018-03-22T23:01:43.260Z,6.80
2018-03-22T23:04:11.199Z,5.80
2018-03-22T23:06:39.097Z,6.63
2018-03-22T23:09:07.284Z,6.47
2018-03-22T23:11:35.207Z,6.07
2018-03-22T23:14:03.111Z,5.80
2018-03-22T23:16:31.060Z,5.95
2018-03-22T23:18:59.166Z,5.93
2018-03-22T23:21:27.067Z,5.90
2018-03-22T23:23:54.984Z,5.95
2018-03-22T23:26:23.200Z,5.62
2018-03-22T23:28:51.110Z,6.10
2018-03-22T23:31:19.028Z,5.68
2018-03-22T23:33:46.959Z,5.80
2018-03-22T23:36:14.907Z,4.90
2018-03-22T23:38:42.830Z,6.05
2018-03-22T23:41:11.005Z,4.90
2018-03-22T23:43:38.915Z,4.82
2018-03-22T23:46:06.835Z,4.90
2018-03-22T23:48:34.945Z,4.20
2018-03-22T23:51:02.867Z,4.43
2018-03-22T23:53:30.804Z,4.20
2018-03-22T23:55:58.754Z,4.72
2018-03-22T23:58:26.846Z,4.25
